Terminal Aerodrome Forecast
Issued by NWS Grand Forks, ND

Home | Current Version | Previous Version | Graphics & Text | Print | Product List | Glossary On
Versions: 1 2 3 4 5 6 7 8 9 10 11 12 13 14 15 16 17 18 19
002
FTUS43 KFGF 231438 AAA
TAFGFK
TAF AMD
KGFK 231438Z 2315/2412 06013G20KT P6SM OVC070
      TEMPO 2315/2316 -SN BKN035
     FM232000 09015KT P6SM OVC035
     FM232300 09014G20KT P6SM VCSH OVC015
     FM240600 07015G22KT P6SM OVC015=

USA.gov is the U.S. government's official web portal to all federal, state and local government web resources and services.